Time;durP1;ratioP1;P1;durP2;ratioP2;P2;SDS_P1;SDS_P2;PMS_P1;PMS_P2;Temp;Humidity;BMP_temperature;BMP_pressure;BME280_temperature;BME280_humidity;BME280_pressure;Samples;Min_cycle;Max_cycle;Signal;HPM_P1;HPM_P2
2023/04/18 00:02:16;;;;;;;28.13;25.83;;;;;;;21.52;41.01;94480.94;6164742;28;108881;-63
2023/04/18 00:05:19;;;;;;;27.57;25.37;;;;;;;21.52;41.20;94485.47;6124751;22;110419;-61
2023/04/18 00:08:23;;;;;;;25.83;23.73;;;;;;;21.52;41.41;94490.78;6126719;28;109249;-61
2023/04/18 00:11:26;;;;;;;26.97;24.67;;;;;;;21.52;41.11;94483.59;6115426;28;109192;-61
2023/04/18 00:14:33;;;;;;;26.83;24.63;;;;;;;21.51;41.11;94482.03;6108224;28;108987;-61
2023/04/18 00:17:38;;;;;;;26.07;23.97;;;;;;;21.51;40.78;94491.88;6107372;28;108970;-60
2023/04/18 00:20:41;;;;;;;25.30;23.27;;;;;;;21.50;41.01;94488.41;6098829;28;108958;-60
2023/04/18 00:23:45;;;;;;;24.90;22.97;;;;;;;21.50;41.01;94485.75;6113763;28;108830;-61
2023/04/18 00:26:48;;;;;;;24.10;22.10;;;;;;;21.50;41.15;94483.09;6092089;28;108940;-60
2023/04/18 00:29:53;;;;;;;25.00;23.00;;;;;;;21.50;40.74;94485.75;6111440;28;109030;-60
2023/04/18 00:32:56;;;;;;;22.77;20.77;;;;;;;21.50;40.71;94482.31;6113029;28;108914;-61
2023/04/18 00:35:59;;;;;;;24.23;22.23;;;;;;;21.50;40.73;94488.41;6112656;28;108945;-60
2023/04/18 00:39:02;;;;;;;22.33;20.63;;;;;;;21.50;40.71;94483.09;6101746;28;109044;-60
2023/04/18 00:42:06;;;;;;;21.90;20.20;;;;;;;21.50;41.11;94485.75;6113152;28;108999;-60
2023/04/18 00:45:11;;;;;;;20.70;18.90;;;;;;;21.50;41.15;94477.78;6112213;28;108890;-60
2023/04/18 00:48:14;;;;;;;19.77;18.17;;;;;;;21.50;40.75;94475.09;6124891;28;108906;-61
2023/04/18 00:51:17;;;;;;;20.60;18.90;;;;;;;21.50;40.88;94471.66;6102224;28;108919;-61
2023/04/18 00:54:24;;;;;;;21.13;19.43;;;;;;;21.49;40.74;94481.53;6113069;28;109216;-61
2023/04/18 00:57:27;;;;;;;20.43;18.83;;;;;;;21.48;40.90;94469.31;6113010;28;109266;-61
2023/04/18 01:00:32;;;;;;;20.90;19.17;;;;;;;21.50;40.79;94466.34;6092299;28;109724;-63
2023/04/18 01:03:36;;;;;;;20.83;19.23;;;;;;;21.49;40.56;94462.91;6127960;28;108966;-61
2023/04/18 01:06:39;;;;;;;20.37;18.67;;;;;;;21.48;40.53;94464.00;6133151;28;108916;-61
2023/04/18 01:09:42;;;;;;;21.80;20.10;;;;;;;21.48;40.52;94463.22;6125489;28;108927;-61
2023/04/18 01:12:46;;;;;;;21.47;19.77;;;;;;;21.47;41.18;94459.00;6109608;28;110744;-61
2023/04/18 01:15:53;;;;;;;22.00;20.20;;;;;;;21.47;41.08;94457.09;6120987;28;108952;-61
2023/04/18 01:18:56;;;;;;;22.10;20.30;;;;;;;21.46;40.49;94460.88;6124400;28;109170;-61
2023/04/18 01:21:59;;;;;;;21.17;19.47;;;;;;;21.46;40.68;94458.22;6121530;28;108892;-61
2023/04/18 01:25:09;;;;;;;20.63;18.93;;;;;;;21.47;40.78;94459.00;6115816;28;108886;-61
2023/04/18 01:28:14;;;;;;;21.40;19.70;;;;;;;21.45;40.55;94464.63;6106938;28;108903;-61
2023/04/18 01:31:17;;;;;;;20.80;19.10;;;;;;;21.46;40.38;94462.75;6120824;28;108895;-62
2023/04/18 01:34:20;;;;;;;20.53;18.93;;;;;;;21.44;40.73;94460.41;6106521;28;108888;-62
2023/04/18 01:37:23;;;;;;;20.23;18.63;;;;;;;21.47;40.84;94456.31;6118321;28;108936;-62
2023/04/18 01:40:28;;;;;;;20.40;18.80;;;;;;;21.44;40.91;94452.44;6123358;28;110226;-62
2023/04/18 01:43:31;;;;;;;20.97;19.30;;;;;;;21.46;40.56;94455.56;6125182;28;108867;-62
2023/04/18 01:46:34;;;;;;;19.27;17.67;;;;;;;21.46;40.27;94457.44;6105090;28;108879;-62
2023/04/18 01:49:38;;;;;;;19.13;17.63;;;;;;;21.45;40.39;94456.66;6126361;28;109019;-62
2023/04/18 01:52:41;;;;;;;20.07;18.30;;;;;;;21.44;40.58;94448.97;6129671;28;108850;-61
2023/04/18 01:55:49;;;;;;;20.17;18.47;;;;;;;21.44;40.70;94451.63;6122459;28;108893;-62
2023/04/18 01:58:52;;;;;;;18.87;17.37;;;;;;;21.45;40.27;94448.66;6102557;28;108891;-61
2023/04/18 02:01:55;;;;;;;18.40;16.80;;;;;;;21.44;40.70;94451.63;6120747;28;108996;-62
2023/04/18 02:04:58;;;;;;;19.63;18.03;;;;;;;21.45;40.54;94448.66;6126164;28;109080;-62
2023/04/18 02:08:01;;;;;;;18.17;16.63;;;;;;;21.43;40.13;94453.53;6127704;28;109110;-63
2023/04/18 02:11:06;;;;;;;18.97;17.37;;;;;;;21.44;40.46;94452.44;6113553;28;109926;-62
2023/04/18 02:14:09;;;;;;;17.33;15.97;;;;;;;21.43;40.51;94458.84;6128928;28;108894;-62
2023/04/18 02:17:12;;;;;;;17.53;16.10;;;;;;;21.44;40.46;94457.75;6113120;28;108830;-63
2023/04/18 02:20:15;;;;;;;17.30;15.83;;;;;;;21.44;40.55;94459.63;6094640;28;109159;-62
2023/04/18 02:23:18;;;;;;;17.07;15.67;;;;;;;21.44;40.34;94460.41;6125154;28;108938;-62
2023/04/18 02:26:23;;;;;;;16.60;15.30;;;;;;;21.44;40.60;94460.41;6117311;28;108953;-62
2023/04/18 02:29:26;;;;;;;16.77;15.47;;;;;;;21.44;40.06;94463.06;6116950;28;108886;-62
2023/04/18 02:32:30;;;;;;;15.23;14.00;;;;;;;21.43;40.36;94463.38;6111208;28;109277;-62
2023/04/18 02:35:33;;;;;;;15.73;14.43;;;;;;;21.40;40.41;94461.38;6113512;28;108972;-62
2023/04/18 02:38:36;;;;;;;15.10;13.90;;;;;;;21.42;40.08;94464.50;6117930;28;108901;-62
2023/04/18 02:41:40;;;;;;;15.57;14.33;;;;;;;21.43;40.54;94464.16;6123871;28;108957;-62
2023/04/18 02:44:43;;;;;;;14.40;13.20;;;;;;;21.42;40.16;94465.28;6117380;28;109299;-62
2023/04/18 02:47:46;;;;;;;14.73;13.63;;;;;;;21.43;40.01;94464.16;6132372;28;109046;-62
2023/04/18 02:51:03;;;;;;;14.60;13.40;;;;;;;21.40;40.54;94462.16;6116260;28;108992;-62
2023/04/18 02:54:06;;;;;;;14.97;13.53;;;;;;;21.41;40.28;94469.03;6111478;28;108994;-62
2023/04/18 02:57:11;;;;;;;14.10;13.00;;;;;;;21.42;40.38;94470.59;6104893;28;110179;-62
2023/04/18 03:00:15;;;;;;;15.27;14.07;;;;;;;21.41;40.30;94470.91;6119566;28;108887;-62
2023/04/18 03:03:18;;;;;;;14.60;13.40;;;;;;;21.42;40.20;94464.50;6131377;28;109223;-62
2023/04/18 03:06:21;;;;;;;16.57;15.03;;;;;;;21.42;39.92;94469.81;6105133;28;108942;-62
2023/04/18 03:09:24;;;;;;;15.37;14.13;;;;;;;21.41;40.37;94471.69;6119983;28;108922;-62
2023/04/18 03:12:29;;;;;;;15.63;14.23;;;;;;;21.43;40.36;94477.47;6134371;28;109066;-63
2023/04/18 03:15:32;;;;;;;15.73;14.43;;;;;;;21.44;40.24;94481.69;6119085;28;108838;-62
2023/04/18 03:18:36;;;;;;;15.70;14.30;;;;;;;21.43;40.21;94480.13;6115722;28;108936;-62
2023/04/18 03:21:39;;;;;;;18.80;17.00;;;;;;;21.39;40.85;94484.53;6125972;28;109212;-73
2023/04/18 03:24:42;;;;;;;18.60;17.03;;;;;;;21.19;41.38;94501.91;6124245;28;108931;-65
2023/04/18 03:27:47;;;;;;;16.90;15.50;;;;;;;21.24;41.35;94494.88;6122139;28;109113;-64
2023/04/18 03:30:50;;;;;;;16.77;15.47;;;;;;;21.27;41.92;94499.56;6128808;28;109399;-64
2023/04/18 03:33:53;;;;;;;15.80;14.47;;;;;;;21.18;42.03;94496.91;6124335;28;109505;-64
2023/04/18 03:36:56;;;;;;;14.53;13.27;;;;;;;21.19;41.90;94501.13;6119727;28;108927;-64
2023/04/18 03:39:59;;;;;;;13.27;12.17;;;;;;;21.11;42.13;94499.25;6108094;28;109164;-63
2023/04/18 03:43:04;;;;;;;13.93;11.50;;;;;;;20.87;42.70;94495.13;6117457;28;109029;-65
2023/04/18 03:46:07;;;;;;;13.60;11.63;;;;;;;20.99;42.97;94499.03;6111680;28;108956;-64
2023/04/18 03:49:11;;;;;;;12.40;11.30;;;;;;;21.04;43.04;94499.69;6123036;28;109311;-64
2023/04/18 03:52:14;;;;;;;11.40;10.40;;;;;;;21.09;42.35;94496.13;6102475;28;108958;-64
2023/04/18 03:55:19;;;;;;;10.80;9.77;;;;;;;21.09;42.94;94498.78;6114720;28;108905;-64
2023/04/18 03:58:24;;;;;;;10.07;9.07;;;;;;;21.07;43.13;94498.31;6114716;28;109302;-65
2023/04/18 04:01:27;;;;;;;11.50;10.40;;;;;;;21.04;43.09;94497.03;6120400;28;110138;-66
2023/04/18 04:04:30;;;;;;;10.53;9.47;;;;;;;21.10;42.60;94498.47;6101059;28;108969;-65
2023/04/18 04:07:33;;;;;;;13.53;11.33;;;;;;;21.12;44.96;94503.47;6114066;28;108925;-63
2023/04/18 04:10:36;;;;;;;10.90;10.03;;;;;;;21.18;44.51;94508.34;6113365;28;108954;-63
2023/04/18 04:13:41;;;;;;;10.13;9.13;;;;;;;21.16;44.12;94507.06;6108627;28;109604;-63
2023/04/18 04:16:44;;;;;;;9.50;8.60;;;;;;;21.16;43.91;94509.72;6116346;28;108997;-62
2023/04/18 04:19:49;;;;;;;8.97;8.30;;;;;;;21.10;43.21;94506.44;6102900;28;108963;-63
2023/04/18 04:22:52;;;;;;;9.57;8.87;;;;;;;21.08;43.46;94510.50;6089807;28;108900;-64
2023/04/18 04:25:55;;;;;;;9.53;8.60;;;;;;;21.03;43.31;94514.09;6079996;28;109467;-65
2023/04/18 04:29:01;;;;;;;9.03;8.30;;;;;;;21.03;42.79;94513.31;6089754;28;108903;-64
2023/04/18 04:32:04;;;;;;;7.73;7.13;;;;;;;20.98;43.24;94522.19;6089618;28;108880;-64
2023/04/18 04:35:08;;;;;;;8.27;7.50;;;;;;;20.96;43.28;94512.97;6089174;28;109020;-64
2023/04/18 04:38:13;;;;;;;7.53;6.93;;;;;;;20.96;43.52;94521.72;6078539;28;109001;-64
2023/04/18 04:41:16;;;;;;;8.13;7.43;;;;;;;20.93;43.00;94520.47;6104698;28;108914;-64
2023/04/18 04:44:21;;;;;;;7.60;7.10;;;;;;;;;;6113441;28;108941;-64
2023/04/18 04:47:24;;;;;;;7.87;7.37;;;;;;;20.91;43.64;94522.66;6108183;28;108879;-63
2023/04/18 04:50:28;;;;;;;7.90;7.27;;;;;;;20.88;43.32;94533.94;6107450;28;109055;-63
2023/04/18 04:53:31;;;;;;;7.50;6.90;;;;;;;20.72;43.89;94535.44;6113495;28;108914;-64
2023/04/18 04:56:35;;;;;;;7.03;6.53;;;;;;;20.79;43.20;94535.78;6112790;28;108966;-63
2023/04/18 04:59:39;;;;;;;8.10;7.40;;;;;;;20.81;43.27;94530.91;6101047;28;108958;-64
2023/04/18 05:02:43;;;;;;;7.80;7.30;;;;;;;20.80;43.86;94534.69;6113092;28;108939;-63
2023/04/18 05:05:46;;;;;;;8.00;7.40;;;;;;;20.80;43.49;94537.34;6112913;28;108986;-63
2023/04/18 05:08:50;;;;;;;7.23;6.73;;;;;;;20.79;43.31;94543.75;6112835;28;108935;-63
2023/04/18 05:11:53;;;;;;;8.80;8.00;;;;;;;20.82;43.73;94545.00;6101288;28;108999;-64
2023/04/18 05:14:57;;;;;;;8.00;7.40;;;;;;;20.80;43.59;94550.63;6112879;28;109034;-63
2023/04/18 05:18:00;;;;;;;8.77;8.07;;;;;;;20.80;43.57;94544.53;6112661;28;108948;-60
2023/04/18 05:21:04;;;;;;;8.97;8.27;;;;;;;20.76;43.04;94547.03;6112886;28;108900;-60
2023/04/18 05:24:07;;;;;;;8.37;7.77;;;;;;;20.75;43.76;94547.34;6103438;28;110063;-62
2023/04/18 05:27:10;;;;;;;9.40;8.70;;;;;;;20.78;43.14;94544.84;6112769;28;108947;-62
2023/04/18 05:30:15;;;;;;;9.27;8.53;;;;;;;20.78;43.40;94549.38;6110993;28;109028;-62
2023/04/18 05:33:18;;;;;;;9.07;8.40;;;;;;;20.75;43.74;94552.66;6079853;28;108974;-62
2023/04/18 05:36:22;;;;;;;9.57;8.87;;;;;;;20.74;43.54;94548.44;6087718;28;108924;-62
2023/04/18 05:39:25;;;;;;;9.03;8.33;;;;;;;20.74;43.39;94551.88;6089378;28;108980;-63
2023/04/18 05:42:28;;;;;;;10.37;9.57;;;;;;;20.74;43.06;94551.88;6111494;28;108906;-62
2023/04/18 05:45:33;;;;;;;9.20;8.50;;;;;;;20.75;43.42;94556.09;6101797;28;108945;-62
2023/04/18 05:48:36;;;;;;;9.00;8.30;;;;;;;20.73;43.64;94555.63;6112457;28;108967;-62
2023/04/18 05:51:39;;;;;;;10.63;9.80;;;;;;;20.72;43.60;94548.75;6111979;28;109075;-62
2023/04/18 05:54:42;;;;;;;8.80;8.20;;;;;;;20.74;43.47;94557.19;6112394;28;108849;-62
2023/04/18 05:57:45;;;;;;;9.20;8.50;;;;;;;20.73;43.57;94555.63;6101309;28;108914;-62
2023/04/18 06:00:50;;;;;;;9.90;9.20;;;;;;;20.73;43.75;94563.59;6112529;28;108802;-62
2023/04/18 06:03:53;;;;;;;9.67;8.80;;;;;;;20.73;43.64;94568.91;6111865;28;108876;-63
2023/04/18 06:06:57;;;;;;;9.70;9.00;;;;;;;20.72;43.50;94564.69;6106666;28;108935;-62
2023/04/18 06:10:00;;;;;;;10.17;9.37;;;;;;;20.73;43.77;94558.28;6106869;28;109208;-63
2023/04/18 06:13:03;;;;;;;10.23;9.50;;;;;;;20.75;44.00;94560.63;6114527;28;110446;-63
2023/04/18 06:16:08;;;;;;;9.23;8.53;;;;;;;20.76;43.59;94564.84;6116068;28;108967;-63
2023/04/18 06:19:11;;;;;;;9.10;8.40;;;;;;;20.75;43.60;94563.28;6097995;28;109246;-63
2023/04/18 06:22:14;;;;;;;8.93;8.30;;;;;;;20.75;43.79;94558.75;6092550;28;108836;-63
2023/04/18 06:25:18;;;;;;;8.63;7.83;;;;;;;20.76;44.76;94560.31;6092245;28;108865;-63
2023/04/18 06:28:21;;;;;;;9.00;8.30;;;;;;;20.77;44.61;94561.88;6114164;28;108952;-61
2023/04/18 06:31:25;;;;;;;9.50;8.70;;;;;;;20.78;45.43;94566.13;6105054;28;109042;-62
2023/04/18 06:34:28;;;;;;;8.70;8.10;;;;;;;20.81;45.27;94560.16;6115834;28;108965;-62
2023/04/18 06:37:32;;;;;;;9.47;8.67;;;;;;;20.81;45.55;94560.16;6115659;28;108930;-62
2023/04/18 06:40:35;;;;;;;9.10;8.40;;;;;;;20.77;44.85;94558.44;6115418;28;108910;-63
2023/04/18 06:43:38;;;;;;;9.33;8.60;;;;;;;20.78;43.95;94563.44;6104289;28;108983;-63
2023/04/18 06:46:55;;;;;;;9.00;8.33;;;;;;;20.58;43.80;94562.16;6115764;28;108900;-62
2023/04/18 06:49:58;;;;;;;9.40;8.70;;;;;;;20.43;44.16;94564.44;6115252;28;108922;-62
2023/04/18 06:53:01;;;;;;;9.73;9.03;;;;;;;20.32;44.38;94563.91;6104840;28;110405;-62
2023/04/18 06:56:05;;;;;;;9.40;8.60;;;;;;;20.26;44.76;94562.47;6115254;28;108844;-63
2023/04/18 06:59:08;;;;;;;9.47;8.67;;;;;;;20.20;44.96;94563.66;6115064;28;108974;-62
2023/04/18 07:02:13;;;;;;;9.47;8.70;;;;;;;20.20;44.96;94561.81;6115592;28;108884;-63
2023/04/18 07:05:16;;;;;;;9.27;8.57;;;;;;;20.23;44.58;94561.19;6104528;28;108998;-63
2023/04/18 07:08:19;;;;;;;9.37;8.67;;;;;;;20.27;44.60;94567.47;6115093;28;109021;-63
2023/04/18 07:11:22;;;;;;;9.50;8.80;;;;;;;20.25;44.57;94569.66;6114815;28;109070;-63
2023/04/18 07:14:26;;;;;;;8.77;8.07;;;;;;;20.27;44.63;94564.81;6114152;28;108904;-61
2023/04/18 07:17:30;;;;;;;9.13;8.33;;;;;;;20.28;44.32;94563.72;6104093;28;109126;-62
2023/04/18 07:20:33;;;;;;;9.10;8.40;;;;;;;20.28;44.31;94562.94;6114975;28;108963;-62
2023/04/18 07:23:37;;;;;;;7.37;6.87;;;;;;;20.31;43.95;94571.09;6114352;28;108923;-62
2023/04/18 07:26:40;;;;;;;7.93;7.13;;;;;;;20.31;43.49;94563.13;6109585;28;108968;-62
2023/04/18 07:29:43;;;;;;;7.80;7.20;;;;;;;20.29;43.26;94567.16;6109567;28;108881;-62
2023/04/18 07:32:48;;;;;;;7.80;7.20;;;;;;;20.27;43.06;94575.44;6114612;28;109007;-62
2023/04/18 07:35:51;;;;;;;8.00;7.40;;;;;;;20.27;42.92;94567.47;6114731;28;108919;-63
2023/04/18 07:38:55;;;;;;;6.73;6.20;;;;;;;20.28;42.59;94565.59;6103917;28;108984;-62
2023/04/18 07:41:58;;;;;;;6.57;6.07;;;;;;;20.28;42.30;94574.34;6114879;28;108841;-62
2023/04/18 07:45:01;;;;;;;6.53;6.03;;;;;;;20.26;42.05;94573.88;6114018;28;108940;-62
2023/04/18 07:48:06;;;;;;;6.77;6.17;;;;;;;20.20;42.28;94575.09;6114793;28;108854;-63
2023/04/18 07:51:11;;;;;;;6.63;6.13;;;;;;;20.12;41.90;94567.84;6104181;28;109066;-62
2023/04/18 07:54:14;;;;;;;6.07;5.67;;;;;;;20.17;41.67;94582.88;6114280;28;108993;-62
2023/04/18 07:57:17;;;;;;;6.43;5.93;;;;;;;20.17;41.56;94580.22;6114316;28;108962;-62
2023/04/18 08:00:21;;;;;;;6.40;5.90;;;;;;;20.21;41.26;94583.84;6110647;28;108944;-62
2023/04/18 08:03:26;;;;;;;5.63;5.23;;;;;;;20.18;41.42;94579.13;6107423;28;109039;-61
2023/04/18 08:06:30;;;;;;;6.60;6.10;;;;;;;20.23;41.47;94589.63;6114950;28;109053;-62
2023/04/18 08:09:33;;;;;;;5.70;5.30;;;;;;;20.24;41.59;94581.38;6114211;28;109006;-62
2023/04/18 08:12:36;;;;;;;5.90;5.50;;;;;;;20.23;41.69;94587.75;6102656;28;108889;-62
2023/04/18 08:15:39;;;;;;;6.40;5.90;;;;;;;20.19;41.66;94581.47;6112811;28;108912;-62
2023/04/18 08:18:44;;;;;;;6.67;5.73;;;;;;;20.18;41.57;94582.56;6113822;28;108899;-62
2023/04/18 08:21:51;;;;;;;6.30;5.70;;;;;;;20.15;41.51;94585.81;6113674;28;108946;-61
2023/04/18 08:24:54;;;;;;;6.17;5.67;;;;;;;20.17;41.30;94588.19;6103426;28;109850;-61
2023/04/18 08:28:06;;;;;;;7.23;6.53;;;;;;;20.15;41.37;94585.03;6113998;28;108879;-62
2023/04/18 08:31:12;;;;;;;6.40;5.80;;;;;;;20.14;40.93;94588.78;6114085;28;108981;-62
2023/04/18 08:34:17;;;;;;;6.50;6.00;;;;;;;20.16;40.86;94587.38;6112446;28;108905;-62
2023/04/18 08:37:20;;;;;;;6.23;5.73;;;;;;;20.16;40.76;94592.69;6105074;28;110830;-62
2023/04/18 08:40:23;;;;;;;7.20;6.60;;;;;;;20.17;40.91;94588.19;6113190;28;108944;-62
2023/04/18 08:43:29;;;;;;;7.40;6.80;;;;;;;20.18;40.71;94579.13;6113411;28;108891;-62
2023/04/18 08:46:34;;;;;;;7.10;6.50;;;;;;;20.18;40.72;94579.91;6102997;28;108927;-61
2023/04/18 08:49:39;;;;;;;6.20;5.70;;;;;;;20.23;40.78;94576.34;6112599;28;108979;-62
2023/04/18 08:52:47;;;;;;;6.60;6.10;;;;;;;20.25;40.63;94580.28;6113099;28;108905;-61
2023/04/18 08:55:53;;;;;;;6.83;6.33;;;;;;;20.34;40.49;94577.69;6113237;28;108771;-62
2023/04/18 08:58:58;;;;;;;7.10;6.50;;;;;;;20.37;40.45;94578.94;6101789;28;109271;-62
2023/04/18 09:02:04;;;;;;;7.67;6.83;;;;;;;20.38;40.58;94580.50;6112698;28;108891;-62
2023/04/18 09:05:13;;;;;;;7.27;6.67;;;;;;;20.38;40.23;94572.53;6112345;28;108823;-61
2023/04/18 09:08:23;;;;;;;6.90;6.30;;;;;;;20.40;40.70;94575.66;6112732;28;108889;-61
2023/04/18 09:11:28;;;;;;;6.67;6.17;;;;;;;20.41;40.43;94569.25;6105292;28;110116;-62
2023/04/18 09:14:32;;;;;;;7.23;6.57;;;;;;;20.44;40.71;94571.31;6112533;28;108894;-62
2023/04/18 09:17:37;;;;;;;7.67;7.10;;;;;;;20.43;40.78;94575.06;6111717;28;109002;-62
2023/04/18 09:20:42;;;;;;;7.00;6.40;;;;;;;20.42;40.75;94576.16;6102511;28;109297;-62
2023/04/18 09:23:46;;;;;;;6.70;6.20;;;;;;;20.41;40.96;94577.25;6112383;28;108939;-61
2023/04/18 09:26:50;;;;;;;6.83;6.33;;;;;;;20.40;40.80;94578.34;6112073;28;108902;-62
2023/04/18 09:29:54;;;;;;;6.63;6.13;;;;;;;20.41;40.55;94580.69;6112358;28;109197;-61
2023/04/18 09:33:01;;;;;;;7.03;6.53;;;;;;;20.40;40.67;94578.34;6102279;28;109344;-62
2023/04/18 09:36:19;;;;;;;6.60;6.10;;;;;;;20.38;41.17;94575.97;6111991;28;108958;-61
2023/04/18 09:39:27;;;;;;;7.00;6.30;;;;;;;20.38;40.72;94577.84;6112307;28;109031;-62
2023/04/18 09:42:36;;;;;;;6.17;5.70;;;;;;;20.37;40.77;94574.41;6109893;28;108931;-60
2023/04/18 09:45:39;;;;;;;5.73;5.33;;;;;;;20.35;40.72;94573.16;6105614;28;108972;-62
2023/04/18 09:48:42;;;;;;;5.67;5.27;;;;;;;20.35;40.56;94573.16;6111712;28;108959;-62
2023/04/18 09:51:50;;;;;;;6.07;5.57;;;;;;;20.33;40.61;94573.44;6111905;28;108935;-61
2023/04/18 09:54:58;;;;;;;6.07;5.63;;;;;;;20.30;40.62;94572.19;6102363;28;109823;-61
2023/04/18 09:58:03;;;;;;;5.43;5.03;;;;;;;20.30;40.41;94564.19;6112413;28;108910;-62
2023/04/18 10:01:06;;;;;;;4.07;3.77;;;;;;;20.33;40.29;94565.47;6112292;28;108761;-62
2023/04/18 10:04:11;;;;;;;4.10;3.70;;;;;;;20.34;40.40;94568.94;6106839;28;108898;-61
2023/04/18 10:07:17;;;;;;;3.80;3.50;;;;;;;20.31;40.28;94567.66;6077603;28;108902;-62
2023/04/18 10:10:20;;;;;;;3.53;3.23;;;;;;;20.32;40.47;94574.53;6094700;28;108876;-62
2023/04/18 10:13:25;;;;;;;3.87;3.57;;;;;;;20.32;40.39;94572.66;6111651;28;108910;-62
2023/04/18 10:16:28;;;;;;;4.33;3.93;;;;;;;20.28;40.19;94569.03;6111575;28;108957;-62
2023/04/18 10:19:32;;;;;;;4.87;3.63;;;;;;;20.28;40.36;94569.03;6102098;28;109196;-62
2023/04/18 10:22:36;;;;;;;4.37;3.97;;;;;;;20.30;40.05;94558.88;6111944;28;108962;-62
2023/04/18 10:25:51;;;;;;;4.40;4.10;;;;;;;20.31;40.28;94559.69;6111566;28;108921;-62
2023/04/18 10:28:56;;;;;;;4.80;4.50;;;;;;;-145.53;100.00;64590.91;6177208;28;108930;-62
2023/04/18 10:32:05;;;;;;;5.40;5.00;;;;;;;-145.53;100.00;64590.91;6221382;28;20231;-62
2023/04/18 10:35:08;;;;;;;5.00;4.67;;;;;;;-145.53;100.00;64590.91;6221709;28;20413;-62
2023/04/18 10:38:17;;;;;;;4.90;4.50;;;;;;;-145.53;100.00;64590.91;6221651;28;20440;-62
2023/04/18 10:41:25;;;;;;;4.67;4.30;;;;;;;-145.53;100.00;64590.91;6210482;28;20580;-62
2023/04/18 10:44:28;;;;;;;4.77;4.37;;;;;;;-145.53;100.00;64590.91;6221526;28;20421;-62
2023/04/18 10:47:31;;;;;;;4.60;4.30;;;;;;;-145.53;100.00;64590.91;6221590;28;20425;-62
2023/04/18 10:51:11;;;;;;;3.87;3.57;;;;;;;-145.53;100.00;64590.91;6221101;28;20425;-62
2023/04/18 10:54:22;;;;;;;4.10;3.80;;;;;;;-145.53;100.00;64590.91;6216029;28;20437;-62
2023/04/18 10:57:25;;;;;;;4.07;3.77;;;;;;;-145.53;100.00;64590.91;6222366;28;20437;-62
2023/04/18 11:00:30;;;;;;;4.10;3.80;;;;;;;-145.53;100.00;64590.91;6225558;28;20429;-62
2023/04/18 11:03:34;;;;;;;4.43;4.13;;;;;;;-145.53;100.00;64590.91;6215100;28;20582;-62
2023/04/18 11:06:47;;;;;;;3.70;3.40;;;;;;;-145.53;100.00;64590.91;6225457;28;20416;-62
2023/04/18 11:09:55;;;;;;;4.47;4.07;;;;;;;-145.53;100.00;64590.91;6225425;28;20424;-62
2023/04/18 11:13:03;;;;;;;4.57;3.60;;;;;;;-145.53;100.00;64590.91;6225400;28;20433;-62
2023/04/18 11:16:07;;;;;;;2.80;2.60;;;;;;;-145.53;100.00;64590.91;6214754;28;20803;-62
2023/04/18 11:19:22;;;;;;;3.40;3.10;;;;;;;-145.53;100.00;64590.91;6225202;28;20952;-62
2023/04/18 11:22:25;;;;;;;3.33;3.03;;;;;;;-145.53;100.00;64590.91;6224785;28;20432;-62
2023/04/18 11:25:35;;;;;;;3.07;2.87;;;;;;;-145.53;100.00;64590.91;6216853;28;20441;-61
2023/04/18 11:28:38;;;;;;;3.47;2.80;;;;;;;-145.53;100.00;64590.91;6224641;28;20909;-62
2023/04/18 11:31:42;;;;;;;2.87;2.67;;;;;;;-145.53;100.00;64590.91;6224946;28;20421;-64
2023/04/18 11:34:46;;;;;;;2.90;2.70;;;;;;;-145.53;100.00;64590.91;6224890;28;20520;-63
2023/04/18 11:37:50;;;;;;;2.80;2.60;;;;;;;-145.53;100.00;64590.91;6214508;28;20453;-62
2023/04/18 11:40:54;;;;;;;2.57;2.37;;;;;;;-145.53;100.00;64590.91;6224761;28;20441;-62
2023/04/18 11:43:57;;;;;;;3.13;2.43;;;;;;;-145.53;100.00;64590.91;6224849;28;20465;-64
2023/04/18 11:47:00;;;;;;;2.90;2.70;;;;;;;-145.53;100.00;64590.91;6224578;28;20488;-63
2023/04/18 11:50:05;;;;;;;2.53;2.33;;;;;;;-145.53;100.00;64590.91;6213726;28;20433;-63
2023/04/18 11:53:08;;;;;;;6.03;2.43;;;;;;;-145.53;100.00;64590.91;6224309;28;20425;-62
2023/04/18 11:56:13;;;;;;;3.20;2.50;;;;;;;-145.53;100.00;64590.91;6224636;28;20587;-61
2023/04/18 11:59:16;;;;;;;2.17;2.00;;;;;;;-145.53;100.00;64590.91;6219200;28;20432;-63
2023/04/18 12:02:20;;;;;;;2.50;2.20;;;;;;;-145.53;100.00;64590.91;6218835;28;20441;-62
2023/04/18 12:05:26;;;;;;;3.17;2.87;;;;;;;-145.53;100.00;64590.91;6224009;28;20810;-62
2023/04/18 12:08:31;;;;;;;2.37;2.20;;;;;;;-145.53;100.00;64590.91;6224293;28;20444;-62
2023/04/18 12:11:36;;;;;;;1.93;1.83;;;;;;;-145.53;100.00;64590.91;6213468;28;20437;-62
2023/04/18 12:14:39;;;;;;;1.30;1.20;;;;;;;-145.53;100.00;64590.91;6224257;28;20425;-62
2023/04/18 12:17:44;;;;;;;1.70;1.47;;;;;;;-145.53;100.00;64590.91;6223959;28;20432;-62
2023/04/18 12:20:50;;;;;;;1.50;1.40;;;;;;;-145.53;100.00;64590.91;6224208;28;20957;-62
2023/04/18 12:23:54;;;;;;;2.33;1.60;;;;;;;-145.53;100.00;64590.91;6213180;28;20444;-61
2023/04/18 12:26:58;;;;;;;1.40;1.30;;;;;;;-145.53;100.00;64590.91;6224016;28;20429;-62
2023/04/18 12:30:02;;;;;;;1.70;1.60;;;;;;;-145.53;100.00;64590.91;6223880;28;20425;-61
2023/04/18 12:33:05;;;;;;;1.90;1.30;;;;;;;-145.53;100.00;64590.91;6220024;28;20432;-61
2023/04/18 12:36:09;;;;;;;1.70;1.50;;;;;;;-145.53;100.00;64590.91;6217454;28;20930;-61
2023/04/18 12:39:13;;;;;;;2.13;1.40;;;;;;;-145.53;100.00;64590.91;6223627;28;20436;-62
2023/04/18 12:42:17;;;;;;;1.63;1.30;;;;;;;-145.53;100.00;64590.91;6223972;28;20436;-62
2023/04/18 12:45:21;;;;;;;3.53;1.80;;;;;;;-145.53;100.00;64590.91;6213517;28;20432;-62
2023/04/18 12:48:25;;;;;;;3.90;1.30;;;;;;;-145.53;100.00;64590.91;6223279;28;20433;-62
2023/04/18 12:51:28;;;;;;;2.87;1.27;;;;;;;-145.53;100.00;64590.91;6223596;28;20463;-62
2023/04/18 12:54:31;;;;;;;2.10;1.40;;;;;;;-145.53;100.00;64590.91;6223362;28;20475;-61
2023/04/18 12:57:36;;;;;;;2.37;1.50;;;;;;;-145.53;100.00;64590.91;6213010;28;20536;-62
2023/04/18 13:00:39;;;;;;;1.43;1.10;;;;;;;-145.53;100.00;64590.91;6223176;28;20960;-61
2023/04/18 13:03:42;;;;;;;1.97;1.50;;;;;;;-145.53;100.00;64590.91;6222435;28;20815;-62
2023/04/18 13:06:50;;;;;;;1.43;1.33;;;;;;;-145.53;100.00;64590.91;6223279;28;20563;-62
2023/04/18 13:09:53;;;;;;;2.87;1.57;;;;;;;-145.53;100.00;64590.91;6211626;28;20433;-61
2023/04/18 13:12:58;;;;;;;2.83;1.30;;;;;;;-145.53;100.00;64590.91;6223213;28;20439;-61
2023/04/18 13:16:01;;;;;;;2.70;1.17;;;;;;;-145.53;100.00;64590.91;6223340;28;20432;-61
2023/04/18 13:19:05;;;;;;;1.87;1.03;;;;;;;-145.53;100.00;64590.91;6216130;28;20441;-61
2023/04/18 13:22:08;;;;;;;1.80;1.13;;;;;;;-145.53;100.00;64590.91;6220052;28;20933;-62
2023/04/18 13:25:12;;;;;;;1.33;1.23;;;;;;;-145.53;100.00;64590.91;6222786;28;20921;-63
2023/04/18 13:28:16;;;;;;;1.87;1.40;;;;;;;-145.53;100.00;64590.91;6223211;28;20472;-61
2023/04/18 13:31:19;;;;;;;1.20;1.10;;;;;;;-145.53;100.00;64590.91;6212188;28;20445;-62
2023/04/18 13:34:23;;;;;;;1.70;1.60;;;;;;;-145.53;100.00;64590.91;6222846;28;20476;-62
2023/04/18 13:37:26;;;;;;;2.00;1.50;;;;;;;-145.53;100.00;64590.91;6222782;28;20443;-63
2023/04/18 13:40:29;;;;;;;1.83;1.30;;;;;;;-145.53;100.00;64590.91;6222639;28;20440;-62
2023/04/18 13:43:34;;;;;;;2.20;2.03;;;;;;;-145.53;100.00;64590.91;6211490;28;20443;-62
2023/04/18 13:46:37;;;;;;;1.60;1.50;;;;;;;-145.53;100.00;64590.91;6222972;28;20433;-62
2023/04/18 13:49:41;;;;;;;2.50;1.47;;;;;;;-145.53;100.00;64590.91;6222394;28;21003;-62
2023/04/18 13:52:45;;;;;;;2.17;1.70;;;;;;;-145.53;100.00;64590.91;6217515;28;20436;-61
2023/04/18 13:55:48;;;;;;;2.80;2.60;;;;;;;-145.53;100.00;64590.91;6216415;28;20487;-61
2023/04/18 13:58:52;;;;;;;1.50;1.40;;;;;;;-145.53;100.00;64590.91;6222369;28;20441;-61
2023/04/18 14:01:55;;;;;;;2.10;1.50;;;;;;;-145.53;100.00;64590.91;6222613;28;20429;-62
2023/04/18 14:04:59;;;;;;;1.33;1.23;;;;;;;-145.53;100.00;64590.91;6211442;28;20763;-62
2023/04/18 14:08:02;;;;;;;1.83;1.13;;;;;;;-145.53;100.00;64590.91;6222300;28;20413;-62